Time,TemperatureF,DewpointF,PressureIn,WindDirection,WindDirectionDegrees,WindSpeedMPH,WindSpeedGustMPH,Humidity,HourlyPrecipIn,Conditions,Clouds,dailyrainin,SoftwareType,DateUTC
2013-01-26 00:01:00,50.2,48.0,30.06,West,277,0.0,0.0,92,0.00,RA,,0.00,WeatherDisplay:10.37,2013-01-26 08:01:00,
2013-01-26 00:06:00,50.1,47.9,30.06,West,277,0.0,0.0,92,0.00,RA,,0.00,WeatherDisplay:10.37,2013-01-26 08:06:00,
2013-01-26 00:11:00,50.0,47.8,30.06,West,277,0.0,0.0,92,0.00,,,0.00,WeatherDisplay:10.37,2013-01-26 08:11:00,
2013-01-26 00:16:00,50.0,48.1,30.05,West,277,0.0,0.0,93,0.00,,,0.00,WeatherDisplay:10.37,2013-01-26 08:16:00,
2013-01-26 00:21:00,50.0,48.1,30.05,West,277,0.0,0.0,93,0.00,,,0.00,WeatherDisplay:10.37,2013-01-26 08:21:00,
2013-01-26 00:26:00,49.9,48.0,30.05,West,277,0.0,0.0,93,0.00,,,0.00,WeatherDisplay:10.37,2013-01-26 08:26:00,
2013-01-26 00:31:00,49.7,47.8,30.05,West,277,0.0,0.0,93,0.00,,,0.00,WeatherDisplay:10.37,2013-01-26 08:31:00,
2013-01-26 00:36:00,49.5,47.6,30.05,West,277,0.0,0.0,93,0.00,,,0.00,WeatherDisplay:10.37,2013-01-26 08:36:00,
2013-01-26 00:41:00,49.3,47.4,30.05,West,277,0.0,0.0,93,0.00,,,0.00,WeatherDisplay:10.37,2013-01-26 08:41:00,
2013-01-26 00:46:00,49.1,47.2,30.05,West,277,0.0,0.0,93,0.00,,,0.00,WeatherDisplay:10.37,2013-01-26 08:46:00,
2013-01-26 00:51:00,48.8,46.9,30.05,West,277,0.0,0.0,93,0.00,,,0.00,WeatherDisplay:10.37,2013-01-26 08:51:00,
2013-01-26 00:56:00,48.6,46.7,30.05,West,277,0.0,0.0,93,0.00,,,0.00,WeatherDisplay:10.37,2013-01-26 08:56:00,
2013-01-26 01:01:00,48.4,46.5,30.05,West,277,0.0,0.0,93,0.00,,,0.00,WeatherDisplay:10.37,2013-01-26 09:01:00,
2013-01-26 01:06:00,48.3,46.4,30.05,West,277,0.0,0.0,93,0.00,,,0.00,WeatherDisplay:10.37,2013-01-26 09:06:00,
2013-01-26 01:11:00,48.2,46.3,30.04,West,277,0.0,0.0,93,0.00,,,0.00,WeatherDisplay:10.37,2013-01-26 09:11:00,
2013-01-26 01:16:00,48.2,46.3,30.04,West,277,0.0,0.0,93,0.00,,,0.00,WeatherDisplay:10.37,2013-01-26 09:16:00,
2013-01-26 01:21:00,48.2,46.3,30.04,West,277,0.0,0.0,93,0.00,,,0.00,WeatherDisplay:10.37,2013-01-26 09:21:00,
2013-01-26 01:26:00,48.2,46.3,30.04,West,277,0.0,0.0,93,0.00,,,0.00,WeatherDisplay:10.37,2013-01-26 09:26:00,
2013-01-26 01:31:00,48.0,46.1,30.04,West,277,0.0,0.0,93,0.00,,,0.00,WeatherDisplay:10.37,2013-01-26 09:31:00,
2013-01-26 01:36:00,47.9,46.0,30.04,West,277,0.0,0.0,93,0.00,,,0.00,WeatherDisplay:10.37,2013-01-26 09:36:00,
2013-01-26 01:41:00,47.7,45.8,30.04,West,277,0.0,0.0,93,0.00,,,0.00,WeatherDisplay:10.37,2013-01-26 09:41:00,
2013-01-26 01:46:00,47.6,45.7,30.04,West,277,0.0,0.0,93,0.00,,,0.00,WeatherDisplay:10.37,2013-01-26 09:46:00,
2013-01-26 01:51:00,47.4,45.5,30.05,West,277,0.0,0.0,93,0.00,,,0.00,WeatherDisplay:10.37,2013-01-26 09:51:00,
2013-01-26 01:56:00,47.2,45.3,30.05,West,277,0.0,0.0,93,0.00,,,0.00,WeatherDisplay:10.37,2013-01-26 09:56:00,
2013-01-26 02:01:00,47.1,45.2,30.05,West,277,0.0,0.0,93,0.00,,,0.00,WeatherDisplay:10.37,2013-01-26 10:01:00,
2013-01-26 02:06:00,46.9,45.0,30.05,West,277,0.0,0.0,93,0.00,,,0.00,WeatherDisplay:10.37,2013-01-26 10:06:00,
2013-01-26 02:11:00,46.8,44.9,30.05,West,277,0.0,0.0,93,0.00,,,0.00,WeatherDisplay:10.37,2013-01-26 10:11:00,
2013-01-26 02:16:00,46.6,44.7,30.05,West,277,0.0,0.0,93,0.00,,,0.00,WeatherDisplay:10.37,2013-01-26 10:16:00,
2013-01-26 02:21:00,46.7,44.8,30.04,West,277,0.0,0.0,93,0.00,,,0.00,WeatherDisplay:10.37,2013-01-26 10:21:00,
2013-01-26 02:26:00,46.5,44.6,30.05,West,277,0.0,0.0,93,0.00,,,0.00,WeatherDisplay:10.37,2013-01-26 10:26:00,
2013-01-26 02:31:00,46.3,44.4,30.05,West,277,0.0,0.0,93,0.00,,,0.00,WeatherDisplay:10.37,2013-01-26 10:31:00,
2013-01-26 02:36:00,46.3,44.4,30.05,West,277,0.0,0.0,93,0.00,,,0.00,WeatherDisplay:10.37,2013-01-26 10:36:00,
2013-01-26 02:41:00,46.3,44.4,30.05,West,277,0.0,0.0,93,0.00,,,0.00,WeatherDisplay:10.37,2013-01-26 10:41:00,
2013-01-26 02:46:00,46.2,44.3,30.05,West,277,0.0,0.0,93,0.00,,,0.00,WeatherDisplay:10.37,2013-01-26 10:46:00,
2013-01-26 02:51:00,46.1,44.2,30.05,West,277,0.0,0.0,93,0.00,,,0.00,WeatherDisplay:10.37,2013-01-26 10:51:00,
2013-01-26 02:56:00,46.1,44.2,30.05,West,277,0.0,0.0,93,0.00,,,0.00,WeatherDisplay:10.37,2013-01-26 10:56:00,
2013-01-26 03:01:00,46.0,44.1,30.05,West,277,0.0,0.0,93,0.00,,,0.00,WeatherDisplay:10.37,2013-01-26 11:01:00,
2013-01-26 03:06:00,45.8,43.9,30.05,West,277,0.0,0.0,93,0.00,,,0.00,WeatherDisplay:10.37,2013-01-26 11:06:00,
2013-01-26 03:11:00,45.6,43.7,30.05,West,277,0.0,0.0,93,0.00,,,0.00,WeatherDisplay:10.37,2013-01-26 11:11:00,
2013-01-26 03:16:00,45.5,43.6,30.04,West,277,0.0,0.0,93,0.00,,,0.00,WeatherDisplay:10.37,2013-01-26 11:16:00,
2013-01-26 03:21:00,45.4,43.5,30.04,West,277,0.0,0.0,93,0.00,,,0.00,WeatherDisplay:10.37,2013-01-26 11:21:00,
2013-01-26 03:26:00,45.2,43.3,30.04,West,277,0.0,0.0,93,0.00,,,0.00,WeatherDisplay:10.37,2013-01-26 11:26:00,
2013-01-26 03:31:00,45.2,43.3,30.04,West,277,0.0,0.0,93,0.00,,,0.00,WeatherDisplay:10.37,2013-01-26 11:31:00,
2013-01-26 03:36:00,45.1,43.2,30.04,West,277,0.0,0.0,93,0.00,,,0.00,WeatherDisplay:10.37,2013-01-26 11:36:00,
2013-01-26 03:41:00,45.1,43.2,30.04,West,277,0.0,0.0,93,0.00,,,0.00,WeatherDisplay:10.37,2013-01-26 11:41:00,
2013-01-26 03:46:00,45.0,43.1,30.04,West,277,0.0,0.0,93,0.00,,,0.00,WeatherDisplay:10.37,2013-01-26 11:46:00,
2013-01-26 03:51:00,45.1,43.2,30.04,West,277,0.0,0.0,93,0.00,,,0.00,WeatherDisplay:10.37,2013-01-26 11:51:00,
2013-01-26 03:56:00,45.3,43.4,30.04,West,277,0.0,0.0,93,0.00,,,0.00,WeatherDisplay:10.37,2013-01-26 11:56:00,
2013-01-26 04:01:00,45.3,43.4,30.04,West,277,0.0,0.0,93,0.00,,,0.00,WeatherDisplay:10.37,2013-01-26 12:01:00,
2013-01-26 04:06:00,45.4,43.5,30.03,West,277,0.0,0.0,93,0.00,,,0.00,WeatherDisplay:10.37,2013-01-26 12:06:00,
2013-01-26 04:11:00,45.5,43.6,30.03,West,277,0.0,0.0,93,0.00,,,0.00,WeatherDisplay:10.37,2013-01-26 12:11:00,
2013-01-26 04:16:00,45.8,43.9,30.03,West,277,0.0,0.0,93,0.00,,,0.00,WeatherDisplay:10.37,2013-01-26 12:16:00,
2013-01-26 04:21:00,46.3,44.4,30.03,West,277,0.0,0.0,93,0.00,,,0.00,WeatherDisplay:10.37,2013-01-26 12:21:00,
2013-01-26 04:26:00,46.6,44.7,30.03,West,277,0.0,0.0,93,0.00,,,0.00,WeatherDisplay:10.37,2013-01-26 12:26:00,
2013-01-26 04:31:00,46.7,44.8,30.03,West,277,0.0,0.0,93,0.00,,,0.00,WeatherDisplay:10.37,2013-01-26 12:31:00,
2013-01-26 04:36:00,46.9,45.0,30.03,West,277,0.0,0.0,93,0.00,,,0.00,WeatherDisplay:10.37,2013-01-26 12:36:00,
2013-01-26 04:41:00,47.1,45.2,30.03,West,277,0.0,0.0,93,0.00,,,0.00,WeatherDisplay:10.37,2013-01-26 12:41:00,
2013-01-26 04:46:00,47.2,45.3,30.03,West,277,0.0,0.0,93,0.00,,,0.00,WeatherDisplay:10.37,2013-01-26 12:46:00,
2013-01-26 04:51:00,47.3,45.4,30.03,West,277,0.0,0.0,93,0.00,,,0.00,WeatherDisplay:10.37,2013-01-26 12:51:00,
2013-01-26 04:56:00,47.4,45.5,30.03,West,277,0.0,0.0,93,0.00,,,0.00,WeatherDisplay:10.37,2013-01-26 12:56:00,
2013-01-26 05:01:00,47.7,45.8,30.03,West,277,0.0,0.0,93,0.00,,,0.00,WeatherDisplay:10.37,2013-01-26 13:01:00,
2013-01-26 05:06:00,47.9,46.0,30.03,West,277,0.0,0.0,93,0.00,,,0.00,WeatherDisplay:10.37,2013-01-26 13:06:00,
2013-01-26 05:11:00,48.0,46.1,30.03,West,277,0.0,0.0,93,0.00,CLR,,0.00,WeatherDisplay:10.37,2013-01-26 13:11:00,
2013-01-26 05:16:00,48.2,46.3,30.03,West,277,0.0,0.0,93,0.00,,,0.00,WeatherDisplay:10.37,2013-01-26 13:16:00,
2013-01-26 05:21:00,48.2,46.3,30.03,West,277,0.0,0.0,93,0.00,,,0.00,WeatherDisplay:10.37,2013-01-26 13:21:00,
2013-01-26 05:26:00,48.2,46.3,30.03,West,277,0.0,0.0,93,0.00,,,0.00,WeatherDisplay:10.37,2013-01-26 13:26:00,
2013-01-26 05:31:00,48.5,46.6,30.03,West,277,0.0,0.0,93,0.00,,,0.00,WeatherDisplay:10.37,2013-01-26 13:31:00,
2013-01-26 05:36:00,48.6,46.7,30.03,West,277,0.0,0.0,93,0.00,,,0.00,WeatherDisplay:10.37,2013-01-26 13:36:00,
2013-01-26 05:41:00,48.7,46.8,30.03,West,277,0.0,0.0,93,0.00,,,0.00,WeatherDisplay:10.37,2013-01-26 13:41:00,
2013-01-26 05:46:00,48.8,46.9,30.03,West,277,0.0,0.0,93,0.00,,,0.00,WeatherDisplay:10.37,2013-01-26 13:46:00,
2013-01-26 05:51:00,48.8,46.9,30.03,West,277,0.0,0.0,93,0.00,,,0.00,WeatherDisplay:10.37,2013-01-26 13:51:00,
2013-01-26 05:56:00,48.9,47.0,30.03,West,277,0.0,0.0,93,0.00,,,0.00,WeatherDisplay:10.37,2013-01-26 13:56:00,
2013-01-26 06:01:00,49.0,47.1,30.03,West,277,0.0,0.0,93,0.00,,,0.00,WeatherDisplay:10.37,2013-01-26 14:01:00,
2013-01-26 06:06:00,49.1,47.2,30.03,West,277,0.0,0.0,93,0.00,,,0.00,WeatherDisplay:10.37,2013-01-26 14:06:00,
2013-01-26 06:11:00,49.0,47.1,30.04,West,277,0.0,0.0,93,0.00,,,0.00,WeatherDisplay:10.37,2013-01-26 14:11:00,
2013-01-26 06:16:00,48.9,47.0,30.04,West,277,0.0,0.0,93,0.00,,,0.00,WeatherDisplay:10.37,2013-01-26 14:16:00,
2013-01-26 06:21:00,48.9,47.0,30.04,West,277,0.0,0.0,93,0.00,,,0.00,WeatherDisplay:10.37,2013-01-26 14:21:00,
2013-01-26 06:26:00,48.9,47.0,30.04,West,276,0.0,0.0,93,0.00,,,0.00,WeatherDisplay:10.37,2013-01-26 14:26:00,
2013-01-26 06:31:00,49.0,47.1,30.03,West,273,0.0,0.0,93,0.00,,,0.00,WeatherDisplay:10.37,2013-01-26 14:31:00,
2013-01-26 06:36:00,49.3,47.4,30.04,South,191,0.0,0.0,93,0.00,,,0.00,WeatherDisplay:10.37,2013-01-26 14:36:00,
2013-01-26 06:41:00,49.3,47.4,30.03,South,191,0.0,0.0,93,0.00,,,0.00,WeatherDisplay:10.37,2013-01-26 14:41:00,
2013-01-26 06:46:00,49.3,47.4,30.03,South,191,0.0,0.0,93,0.00,,,0.00,WeatherDisplay:10.37,2013-01-26 14:46:00,
2013-01-26 06:51:00,49.4,47.5,30.03,SSW,192,0.0,0.0,93,0.00,,,0.00,WeatherDisplay:10.37,2013-01-26 14:51:00,
2013-01-26 06:56:00,49.5,47.6,30.03,SSW,208,0.0,0.0,93,0.00,,,0.00,WeatherDisplay:10.37,2013-01-26 14:56:00,
2013-01-26 07:01:00,49.4,47.5,30.03,SSW,207,0.0,0.0,93,0.00,CLR,,0.00,WeatherDisplay:10.37,2013-01-26 15:01:00,
2013-01-26 07:06:00,49.3,47.4,30.04,SSW,208,0.0,0.0,93,0.00,CLR,,0.00,WeatherDisplay:10.37,2013-01-26 15:06:00,
2013-01-26 07:11:00,49.2,47.3,30.03,SSW,208,0.0,0.0,93,0.00,CLR,,0.00,WeatherDisplay:10.37,2013-01-26 15:11:00,
2013-01-26 07:16:00,49.1,47.2,30.03,SSW,208,0.0,0.0,93,0.00,CLR,,0.00,WeatherDisplay:10.37,2013-01-26 15:16:00,
2013-01-26 07:21:00,49.0,47.1,30.03,SSW,209,0.0,0.0,93,0.00,CLR,,0.00,WeatherDisplay:10.37,2013-01-26 15:21:00,
2013-01-26 07:26:00,48.9,47.0,30.03,SSW,208,0.0,0.0,93,0.00,CLR,,0.00,WeatherDisplay:10.37,2013-01-26 15:26:00,
2013-01-26 07:31:00,48.9,47.0,30.03,SSW,208,0.0,0.0,93,0.00,CLR,,0.00,WeatherDisplay:10.37,2013-01-26 15:31:00,
2013-01-26 07:36:00,48.9,47.0,30.03,SSW,208,0.0,0.0,93,0.00,CLR,,0.00,WeatherDisplay:10.37,2013-01-26 15:36:00,
2013-01-26 07:42:00,49.0,47.1,30.03,SSW,208,0.0,0.0,93,0.00,CLR,,0.00,WeatherDisplay:10.37,2013-01-26 15:42:00,
2013-01-26 07:47:00,49.1,47.2,30.03,SSW,208,0.0,0.0,93,0.00,CLR,,0.00,WeatherDisplay:10.37,2013-01-26 15:47:00,
2013-01-26 07:52:00,49.2,47.3,30.04,SSW,208,0.0,0.0,93,0.00,CLR,,0.00,WeatherDisplay:10.37,2013-01-26 15:52:00,
2013-01-26 07:57:00,49.3,47.4,30.04,SSW,208,0.0,0.0,93,0.00,CLR,,0.00,WeatherDisplay:10.37,2013-01-26 15:57:00,
2013-01-26 08:02:00,49.4,47.5,30.04,SSW,209,0.0,0.0,93,0.00,CLR,,0.00,WeatherDisplay:10.37,2013-01-26 16:02:00,
2013-01-26 08:07:00,49.6,47.7,30.04,SSW,208,0.0,0.0,93,0.00,CLR,,0.00,WeatherDisplay:10.37,2013-01-26 16:07:00,
2013-01-26 08:12:00,49.7,47.8,30.04,SSW,208,0.0,0.0,93,0.00,CLR,,0.00,WeatherDisplay:10.37,2013-01-26 16:12:00,
2013-01-26 08:17:00,49.9,48.0,30.04,SSW,208,0.0,0.0,93,0.00,CLR,,0.00,WeatherDisplay:10.37,2013-01-26 16:17:00,
2013-01-26 08:22:00,50.3,48.4,30.04,SSW,208,0.0,0.0,93,0.00,CLR,,0.00,WeatherDisplay:10.37,2013-01-26 16:22:00,
2013-01-26 08:27:00,50.5,48.6,30.04,SSW,208,0.0,0.0,93,0.00,CLR,,0.00,WeatherDisplay:10.37,2013-01-26 16:27:00,
2013-01-26 08:32:00,50.7,48.7,30.04,SSW,208,0.0,0.0,93,0.00,CLR,,0.00,WeatherDisplay:10.37,2013-01-26 16:32:00,
2013-01-26 08:37:00,50.9,48.9,30.05,SSW,208,0.0,0.0,93,0.00,CLR,,0.00,WeatherDisplay:10.37,2013-01-26 16:37:00,
2013-01-26 08:42:00,51.1,49.1,30.05,SSW,208,0.0,0.0,93,0.00,CLR,,0.00,WeatherDisplay:10.37,2013-01-26 16:42:00,
2013-01-26 08:47:00,51.3,49.3,30.05,SSW,212,1.2,0.0,93,0.00,CLR,,0.00,WeatherDisplay:10.37,2013-01-26 16:47:00,
2013-01-26 08:52:00,51.4,49.4,30.05,West,281,1.2,1.2,93,0.00,CLR,,0.00,WeatherDisplay:10.37,2013-01-26 16:52:00,
2013-01-26 08:57:00,51.5,49.5,30.05,WNW,300,2.0,2.0,93,0.00,CLR,,0.00,WeatherDisplay:10.37,2013-01-26 16:57:00,
2013-01-26 09:02:00,51.5,49.5,30.05,West,274,1.0,0.0,93,0.00,CLR,,0.00,WeatherDisplay:10.37,2013-01-26 17:02:00,
2013-01-26 09:07:00,51.6,49.6,30.05,WNW,301,1.2,1.2,93,0.00,CLR,,0.00,WeatherDisplay:10.37,2013-01-26 17:07:00,
2013-01-26 09:12:00,51.7,49.7,30.05,SW,217,3.5,3.5,93,0.00,CLR,,0.00,WeatherDisplay:10.37,2013-01-26 17:12:00,
2013-01-26 09:17:00,51.7,49.7,30.05,West,276,2.3,2.3,93,0.00,CLR,,0.00,WeatherDisplay:10.37,2013-01-26 17:17:00,
2013-01-26 09:22:00,51.6,49.6,30.05,West,281,4.6,4.6,93,0.00,CLR,,0.00,WeatherDisplay:10.37,2013-01-26 17:22:00,
2013-01-26 09:27:00,51.4,49.4,30.06,WNW,293,4.0,4.0,93,0.00,CLR,,0.00,WeatherDisplay:10.37,2013-01-26 17:27:00,
2013-01-26 09:32:00,51.1,49.1,30.06,WNW,287,3.5,3.5,93,0.00,CLR,,0.00,WeatherDisplay:10.37,2013-01-26 17:32:00,
2013-01-26 09:37:00,51.2,48.1,30.06,WNW,285,4.6,4.6,89,0.00,CLR,,0.00,WeatherDisplay:10.37,2013-01-26 17:37:00,
2013-01-26 09:42:00,51.7,47.0,30.06,WNW,286,3.5,3.5,84,0.00,CLR,,0.00,WeatherDisplay:10.37,2013-01-26 17:42:00,
2013-01-26 09:47:00,52.1,46.1,30.06,West,281,4.6,4.6,80,0.00,CLR,,0.00,WeatherDisplay:10.37,2013-01-26 17:47:00,
2013-01-26 09:52:00,52.4,45.4,30.06,SW,228,3.5,3.5,77,0.00,CLR,,0.00,WeatherDisplay:10.37,2013-01-26 17:52:00,
2013-01-26 09:57:00,52.8,45.8,30.06,WNW,302,3.5,3.5,77,0.00,CLR,,0.00,WeatherDisplay:10.37,2013-01-26 17:57:00,
2013-01-26 10:02:00,53.1,45.7,30.06,WSW,245,3.0,3.0,76,0.00,CLR,,0.00,WeatherDisplay:10.37,2013-01-26 18:02:00,
2013-01-26 10:07:00,53.6,45.5,30.06,West,273,5.8,5.8,74,0.00,CLR,,0.00,WeatherDisplay:10.37,2013-01-26 18:07:00,
2013-01-26 10:12:00,54.2,46.1,30.07,SSW,193,3.5,3.5,74,0.00,CLR,,0.00,WeatherDisplay:10.37,2013-01-26 18:12:00,
2013-01-26 10:17:00,54.8,44.8,30.07,WNW,290,4.6,4.6,69,0.00,CLR,,0.00,WeatherDisplay:10.37,2013-01-26 18:17:00,
2013-01-26 10:22:00,55.3,44.5,30.07,WSW,255,4.6,4.6,67,0.00,CLR,,0.00,WeatherDisplay:10.37,2013-01-26 18:22:00,
2013-01-26 10:27:00,55.6,44.8,30.06,NW,325,4.0,4.0,67,0.00,CLR,,0.00,WeatherDisplay:10.37,2013-01-26 18:27:00,
2013-01-26 10:32:00,56.1,44.1,30.06,ESE,102,3.5,3.5,64,0.00,CLR,,0.00,WeatherDisplay:10.37,2013-01-26 18:32:00,
2013-01-26 10:37:00,56.3,44.3,30.06,SW,215,3.5,3.5,64,0.00,CLR,,0.00,WeatherDisplay:10.37,2013-01-26 18:37:00,
2013-01-26 10:42:00,56.5,44.0,30.06,West,270,6.9,6.9,63,0.00,CLR,,0.00,WeatherDisplay:10.37,2013-01-26 18:42:00,
2013-01-26 10:47:00,56.8,44.3,30.06,WSW,252,3.5,3.5,63,0.00,CLR,,0.00,WeatherDisplay:10.37,2013-01-26 18:47:00,
2013-01-26 10:52:00,57.0,44.5,30.06,WNW,288,4.0,4.0,63,0.00,CLR,,0.00,WeatherDisplay:10.37,2013-01-26 18:52:00,
2013-01-26 10:57:00,57.5,43.7,30.06,West,273,3.5,4.2,60,0.00,CLR,,0.00,WeatherDisplay:10.37,2013-01-26 18:57:00,
2013-01-26 11:02:00,57.7,43.0,30.06,SSW,212,6.9,6.9,58,0.00,CLR,,0.00,WeatherDisplay:10.37,2013-01-26 19:02:00,
2013-01-26 11:07:00,58.0,41.9,30.06,SSW,201,5.8,5.8,55,0.00,CLR,,0.00,WeatherDisplay:10.37,2013-01-26 19:07:00,
2013-01-26 11:12:00,58.0,41.9,30.06,WNW,284,9.2,9.2,55,0.00,CLR,,0.00,WeatherDisplay:10.37,2013-01-26 19:12:00,
2013-01-26 11:17:00,58.0,41.0,30.06,West,271,10.4,10.4,53,0.00,CLR,,0.00,WeatherDisplay:10.37,2013-01-26 19:17:00,
2013-01-26 11:22:00,58.0,41.4,30.06,WNW,290,9.2,9.2,54,0.00,CLR,,0.00,WeatherDisplay:10.37,2013-01-26 19:22:00,
2013-01-26 11:27:00,58.0,42.8,30.06,WSW,242,4.6,4.6,57,0.00,CLR,,0.00,WeatherDisplay:10.37,2013-01-26 19:27:00,
2013-01-26 11:32:00,58.2,42.1,30.05,WNW,298,5.0,5.0,55,0.00,CLR,,0.00,WeatherDisplay:10.37,2013-01-26 19:32:00,
2013-01-26 11:37:00,58.2,42.1,30.05,West,269,4.0,4.0,55,0.00,CLR,,0.00,WeatherDisplay:10.37,2013-01-26 19:37:00,
2013-01-26 11:42:00,58.3,41.7,30.05,WNW,288,6.9,6.9,54,0.00,CLR,,0.00,WeatherDisplay:10.37,2013-01-26 19:42:00,
2013-01-26 11:47:00,58.7,40.1,30.05,WNW,298,4.6,4.6,50,0.00,CLR,,0.00,WeatherDisplay:10.37,2013-01-26 19:47:00,
2013-01-26 11:52:00,59.1,41.0,30.04,WNW,287,6.0,6.0,51,0.00,CLR,,0.00,WeatherDisplay:10.37,2013-01-26 19:52:00,
2013-01-26 11:57:00,59.0,39.9,30.04,WNW,293,4.6,4.6,49,0.00,CLR,,0.00,WeatherDisplay:10.37,2013-01-26 19:57:00,
2013-01-26 12:02:00,59.1,42.0,30.04,SSW,206,4.0,4.0,53,0.00,CLR,,0.00,WeatherDisplay:10.37,2013-01-26 20:02:00,
2013-01-26 12:07:00,59.2,43.0,30.04,WNW,294,5.0,5.0,55,0.00,,,0.00,WeatherDisplay:10.37,2013-01-26 20:07:00,
2013-01-26 12:12:00,59.1,43.4,30.03,WNW,293,10.4,10.4,56,0.00,CLR,,0.00,WeatherDisplay:10.37,2013-01-26 20:12:00,
2013-01-26 12:17:00,59.3,43.6,30.03,SSE,159,3.5,3.5,56,0.00,CLR,,0.00,WeatherDisplay:10.37,2013-01-26 20:17:00,
2013-01-26 12:22:00,59.7,43.5,30.03,WNW,295,4.6,4.6,55,0.00,CLR,,0.00,WeatherDisplay:10.37,2013-01-26 20:22:00,
2013-01-26 12:27:00,59.8,43.6,30.02,NE,38,6.9,6.9,55,0.00,CLR,,0.00,WeatherDisplay:10.37,2013-01-26 20:27:00,
2013-01-26 12:32:00,59.9,43.2,30.02,West,274,9.2,9.2,54,0.00,CLR,,0.00,WeatherDisplay:10.37,2013-01-26 20:32:00,
2013-01-26 12:37:00,59.5,42.3,30.02,WNW,293,11.5,11.5,53,0.00,CLR,,0.00,WeatherDisplay:10.37,2013-01-26 20:37:00,
2013-01-26 12:42:00,59.2,43.5,30.02,NNW,338,5.8,5.8,56,0.00,CLR,,0.00,WeatherDisplay:10.37,2013-01-26 20:42:00,
2013-01-26 12:47:00,59.2,43.0,30.02,West,278,8.1,8.1,55,0.00,CLR,,0.00,WeatherDisplay:10.37,2013-01-26 20:47:00,
2013-01-26 12:52:00,59.5,43.8,30.01,NW,318,6.9,6.9,56,0.00,CLR,,0.00,WeatherDisplay:10.37,2013-01-26 20:52:00,
2013-01-26 12:57:00,59.5,43.3,30.01,West,281,6.9,6.9,55,0.00,CLR,,0.00,WeatherDisplay:10.37,2013-01-26 20:57:00,
2013-01-26 13:02:00,59.6,43.4,30.01,WSW,252,6.9,6.9,55,0.00,CLR,,0.00,WeatherDisplay:10.37,2013-01-26 21:02:00,
2013-01-26 13:07:00,59.7,44.4,30.01,SW,226,8.1,8.1,57,0.00,CLR,,0.00,WeatherDisplay:10.37,2013-01-26 21:07:00,
2013-01-26 13:12:00,60.1,44.8,30.01,NW,311,3.5,3.5,57,0.00,CLR,,0.00,WeatherDisplay:10.37,2013-01-26 21:12:00,
2013-01-26 13:17:00,60.4,43.7,30.01,NW,311,2.3,2.3,54,0.00,CLR,,0.00,WeatherDisplay:10.37,2013-01-26 21:17:00,
2013-01-26 13:22:00,60.5,43.8,30.01,NNE,25,5.8,5.8,54,0.00,CLR,,0.00,WeatherDisplay:10.37,2013-01-26 21:22:00,
2013-01-26 13:27:00,60.1,43.4,30.01,NW,314,8.1,8.1,54,0.00,CLR,,0.00,WeatherDisplay:10.37,2013-01-26 21:27:00,
2013-01-26 13:32:00,59.8,43.6,30.01,WNW,292,6.9,6.9,55,0.00,CLR,,0.00,WeatherDisplay:10.37,2013-01-26 21:32:00,
2013-01-26 13:37:00,59.6,43.9,30.01,NW,321,6.9,6.9,56,0.00,CLR,,0.00,WeatherDisplay:10.37,2013-01-26 21:37:00,
2013-01-26 13:42:00,59.2,43.5,30.01,ENE,57,6.9,6.9,56,0.00,CLR,,0.00,WeatherDisplay:10.37,2013-01-26 21:42:00,
2013-01-26 13:47:00,59.1,43.9,30.01,NW,319,10.4,10.4,57,0.00,CLR,,0.00,WeatherDisplay:10.37,2013-01-26 21:47:00,
2013-01-26 13:52:00,59.0,44.2,30.01,WSW,255,9.2,9.2,58,0.00,CLR,,0.00,WeatherDisplay:10.37,2013-01-26 21:52:00,
2013-01-26 13:57:00,59.2,44.9,30.01,WNW,295,6.9,6.9,59,0.00,CLR,,0.00,WeatherDisplay:10.37,2013-01-26 21:57:00,
2013-01-26 14:02:00,59.2,44.4,30.01,NW,305,8.1,8.1,58,0.00,CLR,,0.00,WeatherDisplay:10.37,2013-01-26 22:02:00,
2013-01-26 14:07:00,58.8,44.5,30.01,WNW,300,11.5,11.5,59,0.00,CLR,,0.00,WeatherDisplay:10.37,2013-01-26 22:07:00,
2013-01-26 14:12:00,58.6,44.8,30.01,NW,325,8.0,8.0,60,0.00,CLR,,0.00,WeatherDisplay:10.37,2013-01-26 22:12:00,
2013-01-26 14:17:00,58.3,44.5,30.01,West,273,7.0,7.0,60,0.00,CLR,,0.00,WeatherDisplay:10.37,2013-01-26 22:17:00,
2013-01-26 14:22:00,58.4,45.4,30.02,West,280,4.6,4.6,62,0.00,CLR,,0.00,WeatherDisplay:10.37,2013-01-26 22:22:00,
2013-01-26 14:27:00,58.6,44.8,30.02,West,259,10.4,10.4,60,0.00,CLR,,0.00,WeatherDisplay:10.37,2013-01-26 22:27:00,
2013-01-26 14:32:00,58.3,44.0,30.02,WNW,290,6.9,6.9,59,0.00,CLR,,0.00,WeatherDisplay:10.37,2013-01-26 22:32:00,
2013-01-26 14:37:00,58.0,43.7,30.02,WNW,295,5.8,5.8,59,0.00,CLR,,0.00,WeatherDisplay:10.37,2013-01-26 22:37:00,
2013-01-26 14:42:00,58.0,44.2,30.03,NW,309,8.1,8.1,60,0.00,CLR,,0.00,WeatherDisplay:10.37,2013-01-26 22:42:00,
2013-01-26 14:47:00,57.5,43.7,30.03,West,265,9.2,9.2,60,0.00,CLR,,0.00,WeatherDisplay:10.37,2013-01-26 22:47:00,
2013-01-26 14:52:00,57.1,43.3,30.03,NW,318,5.8,5.8,60,0.00,CLR,,0.00,WeatherDisplay:10.37,2013-01-26 22:52:00,
2013-01-26 14:57:00,57.0,43.2,30.03,WNW,288,6.9,6.9,60,0.00,CLR,,0.00,WeatherDisplay:10.37,2013-01-26 22:57:00,
2013-01-26 15:02:00,57.1,43.3,30.03,SSW,197,6.9,6.9,60,0.00,CLR,,0.00,WeatherDisplay:10.37,2013-01-26 23:02:00,
2013-01-26 15:07:00,57.2,42.5,30.03,WNW,288,9.2,9.2,58,0.00,CLR,,0.00,WeatherDisplay:10.37,2013-01-26 23:07:00,
2013-01-26 15:12:00,57.3,42.6,30.03,WNW,298,5.8,5.8,58,0.00,CLR,,0.00,WeatherDisplay:10.37,2013-01-26 23:12:00,
2013-01-26 15:17:00,57.6,42.5,30.03,West,281,5.8,5.8,57,0.00,CLR,,0.00,WeatherDisplay:10.37,2013-01-26 23:17:00,
2013-01-26 15:22:00,57.7,42.6,30.03,WNW,295,4.6,4.6,57,0.00,CLR,,0.00,WeatherDisplay:10.37,2013-01-26 23:22:00,
2013-01-26 15:27:00,57.6,42.5,30.03,WNW,288,3.5,3.5,57,0.00,CLR,,0.00,WeatherDisplay:10.37,2013-01-26 23:27:00,
2013-01-26 15:32:00,57.7,42.6,30.03,WSW,246,5.8,5.8,57,0.00,CLR,,0.00,WeatherDisplay:10.37,2013-01-26 23:32:00,
2013-01-26 15:37:00,57.8,43.1,30.03,WNW,293,2.3,2.3,58,0.00,CLR,,0.00,WeatherDisplay:10.37,2013-01-26 23:37:00,
2013-01-26 15:42:00,58.0,43.3,30.03,West,266,5.8,5.8,58,0.00,CLR,,0.00,WeatherDisplay:10.37,2013-01-26 23:42:00,
2013-01-26 15:47:00,57.6,42.9,30.03,South,174,11.5,11.5,58,0.00,CLR,,0.00,WeatherDisplay:10.37,2013-01-26 23:47:00,
2013-01-26 15:52:00,57.1,42.9,30.03,West,273,11.5,11.5,59,0.00,CLR,,0.00,WeatherDisplay:10.37,2013-01-26 23:52:00,
2013-01-26 15:57:00,56.9,44.0,30.03,SW,221,10.4,10.4,62,0.00,CLR,,0.00,WeatherDisplay:10.37,2013-01-26 23:57:00,
2013-01-26 16:02:00,56.8,43.9,30.03,West,279,5.8,5.8,62,0.00,CLR,,0.00,WeatherDisplay:10.37,2013-01-27 00:02:00,
2013-01-26 16:07:00,56.5,43.6,30.03,West,269,6.9,6.9,62,0.00,CLR,,0.00,WeatherDisplay:10.37,2013-01-27 00:07:00,
2013-01-26 16:12:00,55.9,43.5,30.03,SW,225,5.8,5.8,63,0.00,CLR,,0.00,WeatherDisplay:10.37,2013-01-27 00:12:00,
2013-01-26 16:17:00,55.5,43.1,30.03,WSW,248,7.0,7.0,63,0.00,CLR,,0.00,WeatherDisplay:10.37,2013-01-27 00:17:00,
2013-01-26 16:22:00,54.9,42.9,30.03,SW,224,5.8,5.8,64,0.00,CLR,,0.00,WeatherDisplay:10.37,2013-01-27 00:22:00,
2013-01-26 16:27:00,54.5,43.0,30.03,WNW,283,5.8,5.8,65,0.00,CLR,,0.00,WeatherDisplay:10.37,2013-01-27 00:27:00,
2013-01-26 16:32:00,54.4,42.9,30.03,SW,224,4.6,4.6,65,0.00,CLR,,0.00,WeatherDisplay:10.37,2013-01-27 00:32:00,
2013-01-26 16:37:00,54.1,43.0,30.03,SW,221,3.5,3.5,66,0.00,CLR,,0.00,WeatherDisplay:10.37,2013-01-27 00:37:00,
2013-01-26 16:42:00,53.8,42.7,30.04,SSW,208,8.1,8.1,66,0.00,CLR,,0.00,WeatherDisplay:10.37,2013-01-27 00:42:00,
2013-01-26 16:47:00,53.6,42.9,30.04,NW,307,4.6,4.6,67,0.00,CLR,,0.00,WeatherDisplay:10.37,2013-01-27 00:47:00,
2013-01-26 16:52:00,53.5,42.8,30.04,South,188,5.8,5.8,67,0.00,CLR,,0.00,WeatherDisplay:10.37,2013-01-27 00:52:00,
2013-01-26 16:57:00,53.3,43.0,30.04,SW,228,6.9,6.9,68,0.00,CLR,,0.00,WeatherDisplay:10.37,2013-01-27 00:57:00,
2013-01-26 17:02:00,53.1,43.2,30.04,SSW,205,4.6,4.6,69,0.00,CLR,,0.00,WeatherDisplay:10.37,2013-01-27 01:02:00,
2013-01-26 17:07:00,52.9,43.4,30.04,WNW,295,5.8,5.8,70,0.00,CLR,,0.00,WeatherDisplay:10.37,2013-01-27 01:07:00,
2013-01-26 17:12:00,52.7,43.2,30.04,West,266,3.5,3.5,70,0.00,CLR,,0.00,WeatherDisplay:10.37,2013-01-27 01:12:00,
2013-01-26 17:17:00,52.5,43.4,30.04,SW,222,2.3,2.3,71,0.00,CLR,,0.00,WeatherDisplay:10.37,2013-01-27 01:17:00,
2013-01-26 17:22:00,52.3,43.2,30.04,West,276,1.2,1.2,71,0.00,CLR,,0.00,WeatherDisplay:10.37,2013-01-27 01:22:00,
2013-01-26 17:27:00,52.1,43.3,30.05,North,359,1.2,1.2,72,0.00,CLR,,0.00,WeatherDisplay:10.37,2013-01-27 01:27:00,
2013-01-26 17:32:00,51.9,43.2,30.05,WNW,289,3.5,3.5,72,0.00,CLR,,0.00,WeatherDisplay:10.37,2013-01-27 01:32:00,
2013-01-26 17:37:00,51.7,43.3,30.05,WSW,242,2.3,2.3,73,0.00,CLR,,0.00,WeatherDisplay:10.37,2013-01-27 01:37:00,
2013-01-26 17:42:00,51.5,43.1,30.05,North,3,4.6,4.6,73,0.00,CLR,,0.00,WeatherDisplay:10.37,2013-01-27 01:42:00,
2013-01-26 17:47:00,51.4,43.4,30.05,WNW,284,2.3,2.3,74,0.00,CLR,,0.00,WeatherDisplay:10.37,2013-01-27 01:47:00,
2013-01-26 17:52:00,51.2,43.2,30.05,West,281,1.2,1.2,74,0.00,CLR,,0.00,WeatherDisplay:10.37,2013-01-27 01:52:00,
2013-01-26 17:57:00,51.0,43.4,30.06,NW,307,1.2,1.2,75,0.00,,,0.00,WeatherDisplay:10.37,2013-01-27 01:57:00,
2013-01-26 18:02:00,50.8,43.2,30.06,WSW,257,1.2,1.2,75,0.00,,,0.00,WeatherDisplay:10.37,2013-01-27 02:02:00,
2013-01-26 18:07:00,50.7,43.4,30.06,WSW,242,2.3,2.3,76,0.00,,,0.00,WeatherDisplay:10.37,2013-01-27 02:07:00,
2013-01-26 18:12:00,50.6,43.3,30.06,West,276,2.3,2.3,76,0.00,,,0.00,WeatherDisplay:10.37,2013-01-27 02:12:00,
2013-01-26 18:17:00,50.5,43.2,30.06,WSW,257,0.0,0.0,76,0.00,,,0.00,WeatherDisplay:10.37,2013-01-27 02:17:00,
2013-01-26 18:22:00,50.3,43.0,30.06,WSW,252,2.3,2.3,76,0.00,,,0.00,WeatherDisplay:10.37,2013-01-27 02:22:00,
2013-01-26 18:27:00,50.2,43.3,30.07,WSW,252,1.2,1.2,77,0.00,,,0.00,WeatherDisplay:10.37,2013-01-27 02:27:00,
2013-01-26 18:32:00,50.0,43.1,30.07,WSW,252,0.0,0.0,77,0.00,,,0.00,WeatherDisplay:10.37,2013-01-27 02:32:00,
2013-01-26 18:37:00,49.8,42.9,30.07,SE,130,1.2,1.2,77,0.00,,,0.00,WeatherDisplay:10.37,2013-01-27 02:37:00,
2013-01-26 18:42:00,49.6,43.0,30.07,SW,235,1.2,1.2,78,0.00,,,0.00,WeatherDisplay:10.37,2013-01-27 02:42:00,
2013-01-26 18:47:00,49.4,42.8,30.07,SW,235,0.0,0.0,78,0.00,,,0.00,WeatherDisplay:10.37,2013-01-27 02:47:00,
2013-01-26 18:52:00,49.1,42.5,30.07,SW,235,0.0,0.0,78,0.00,,,0.00,WeatherDisplay:10.37,2013-01-27 02:52:00,
2013-01-26 18:57:00,48.9,42.7,30.07,SSE,167,1.2,1.2,79,0.00,,,0.00,WeatherDisplay:10.37,2013-01-27 02:57:00,
2013-01-26 19:02:00,48.6,42.4,30.07,WSW,256,1.2,1.2,79,0.00,,,0.00,WeatherDisplay:10.37,2013-01-27 03:02:00,
2013-01-26 19:07:00,48.6,42.4,30.07,SSW,211,1.2,1.2,79,0.00,,,0.00,WeatherDisplay:10.37,2013-01-27 03:07:00,
2013-01-26 19:12:00,48.7,42.5,30.07,SSW,198,2.3,2.3,79,0.00,,,0.00,WeatherDisplay:10.37,2013-01-27 03:12:00,
2013-01-26 19:17:00,48.7,42.5,30.08,West,269,0.0,0.0,79,0.00,,,0.00,WeatherDisplay:10.37,2013-01-27 03:17:00,
2013-01-26 19:22:00,48.5,42.0,30.08,West,269,0.0,0.0,78,0.00,,,0.00,WeatherDisplay:10.37,2013-01-27 03:22:00,
2013-01-26 19:27:00,48.2,42.0,30.08,West,269,0.0,0.0,79,0.00,,,0.00,WeatherDisplay:10.37,2013-01-27 03:27:00,
2013-01-26 19:32:00,47.7,41.8,30.08,West,269,1.2,1.2,80,0.00,,,0.00,WeatherDisplay:10.37,2013-01-27 03:32:00,
2013-01-26 19:37:00,47.4,41.5,30.08,West,269,0.0,0.0,80,0.00,,,0.00,WeatherDisplay:10.37,2013-01-27 03:37:00,
2013-01-26 19:42:00,47.1,41.6,30.08,West,269,0.0,0.0,81,0.00,,,0.00,WeatherDisplay:10.37,2013-01-27 03:42:00,
2013-01-26 19:47:00,46.7,41.5,30.08,NNE,12,1.2,1.2,82,0.00,,,0.00,WeatherDisplay:10.37,2013-01-27 03:47:00,
2013-01-26 19:52:00,46.5,41.6,30.08,West,277,1.2,1.2,83,0.00,,,0.00,WeatherDisplay:10.37,2013-01-27 03:52:00,
2013-01-26 19:57:00,46.5,41.6,30.08,WSW,238,1.2,1.2,83,0.00,,,0.00,WeatherDisplay:10.37,2013-01-27 03:57:00,
2013-01-26 20:02:00,46.6,42.0,30.08,WNW,289,1.2,1.2,84,0.00,CLR,,0.00,WeatherDisplay:10.37,2013-01-27 04:02:00,
2013-01-26 20:07:00,46.9,42.3,30.08,West,267,2.3,2.3,84,0.00,CLR,,0.00,WeatherDisplay:10.37,2013-01-27 04:07:00,
2013-01-26 20:12:00,47.1,42.2,30.08,West,267,0.0,0.0,83,0.00,CLR,,0.00,WeatherDisplay:10.37,2013-01-27 04:12:00,
2013-01-26 20:17:00,47.2,42.3,30.08,SW,228,1.2,0.0,83,0.00,CLR,,0.00,WeatherDisplay:10.37,2013-01-27 04:17:00,
2013-01-26 20:22:00,47.1,42.2,30.08,SW,219,0.0,0.0,83,0.00,CLR,,0.00,WeatherDisplay:10.37,2013-01-27 04:22:00,
2013-01-26 20:27:00,46.9,42.0,30.08,West,276,1.2,1.2,83,0.00,CLR,,0.00,WeatherDisplay:10.37,2013-01-27 04:27:00,
2013-01-26 20:32:00,46.9,42.0,30.08,NW,312,0.0,0.0,83,0.00,CLR,,0.00,WeatherDisplay:10.37,2013-01-27 04:32:00,
2013-01-26 20:37:00,46.7,41.8,30.08,NW,312,1.2,1.2,83,0.00,CLR,,0.00,WeatherDisplay:10.37,2013-01-27 04:37:00,
2013-01-26 20:42:00,46.4,41.8,30.08,West,259,2.3,2.3,84,0.00,CLR,,0.00,WeatherDisplay:10.37,2013-01-27 04:42:00,
2013-01-26 20:47:00,46.5,41.9,30.09,West,278,0.0,0.0,84,0.00,CLR,,0.00,WeatherDisplay:10.37,2013-01-27 04:47:00,
2013-01-26 20:52:00,46.5,41.9,30.09,West,271,0.0,0.0,84,0.00,CLR,,0.00,WeatherDisplay:10.37,2013-01-27 04:52:00,
2013-01-26 20:57:00,46.4,41.5,30.09,West,271,0.0,0.0,83,0.00,CLR,,0.00,WeatherDisplay:10.37,2013-01-27 04:57:00,
2013-01-26 21:00:00,46.3,41.7,30.09,West,271,0.0,0.0,84,0.00,,,0.00,WeatherDisplay:10.37,2013-01-27 05:00:00,
2013-01-26 21:01:00,46.2,41.6,30.09,West,271,0.0,0.0,84,0.00,,,0.00,WeatherDisplay:10.37,2013-01-27 05:01:00,
2013-01-26 21:03:00,46.1,41.5,30.09,West,271,0.0,0.0,84,0.00,,,0.00,WeatherDisplay:10.37,2013-01-27 05:03:00,
2013-01-26 21:08:00,45.8,41.2,30.09,West,271,0.0,0.0,84,0.00,,,0.00,WeatherDisplay:10.37,2013-01-27 05:08:00,
2013-01-26 21:13:00,45.6,41.0,30.09,West,271,0.0,0.0,84,0.00,,,0.00,WeatherDisplay:10.37,2013-01-27 05:13:00,
2013-01-26 21:18:00,45.2,40.7,30.09,West,271,0.0,0.0,84,0.00,,,0.00,WeatherDisplay:10.37,2013-01-27 05:18:00,
2013-01-26 21:23:00,44.9,40.7,30.09,West,271,0.0,0.0,85,0.00,,,0.00,WeatherDisplay:10.37,2013-01-27 05:23:00,
2013-01-26 21:28:00,44.6,40.4,30.09,West,271,0.0,0.0,85,0.00,,,0.00,WeatherDisplay:10.37,2013-01-27 05:28:00,
2013-01-26 21:33:00,44.2,40.0,30.09,West,271,0.0,0.0,85,0.00,,,0.00,WeatherDisplay:10.37,2013-01-27 05:33:00,
2013-01-26 21:38:00,43.9,39.7,30.09,West,271,0.0,0.0,85,0.00,,,0.00,WeatherDisplay:10.37,2013-01-27 05:38:00,
2013-01-26 21:43:00,43.7,39.8,30.09,West,271,0.0,0.0,86,0.00,,,0.00,WeatherDisplay:10.37,2013-01-27 05:43:00,
2013-01-26 21:48:00,43.5,39.9,30.09,West,271,0.0,0.0,87,0.00,,,0.00,WeatherDisplay:10.37,2013-01-27 05:48:00,
2013-01-26 21:53:00,43.5,40.2,30.10,West,271,0.0,0.0,88,0.00,,,0.00,WeatherDisplay:10.37,2013-01-27 05:53:00,
2013-01-26 21:58:00,43.4,40.1,30.10,West,271,0.0,0.0,88,0.00,,,0.00,WeatherDisplay:10.37,2013-01-27 05:58:00,
2013-01-26 22:03:00,43.2,39.9,30.10,West,271,0.0,0.0,88,0.00,,,0.00,WeatherDisplay:10.37,2013-01-27 06:03:00,
2013-01-26 22:08:00,43.0,39.7,30.10,West,271,0.0,0.0,88,0.00,,,0.00,WeatherDisplay:10.37,2013-01-27 06:08:00,
2013-01-26 22:13:00,42.9,39.9,30.10,West,271,0.0,0.0,89,0.00,,,0.00,WeatherDisplay:10.37,2013-01-27 06:13:00,
2013-01-26 22:18:00,42.9,39.9,30.10,West,271,0.0,0.0,89,0.00,,,0.00,WeatherDisplay:10.37,2013-01-27 06:18:00,
2013-01-26 22:23:00,42.8,39.8,30.10,West,271,1.2,1.2,89,0.00,,,0.00,WeatherDisplay:10.37,2013-01-27 06:23:00,
2013-01-26 22:28:00,42.7,39.7,30.10,West,271,0.0,0.0,89,0.00,,,0.00,WeatherDisplay:10.37,2013-01-27 06:28:00,
2013-01-26 22:33:00,42.6,39.6,30.10,West,272,0.0,0.0,89,0.00,,,0.00,WeatherDisplay:10.37,2013-01-27 06:33:00,
2013-01-26 22:38:00,42.5,39.5,30.10,West,273,0.0,0.0,89,0.00,,,0.00,WeatherDisplay:10.37,2013-01-27 06:38:00,
2013-01-26 22:43:00,42.5,39.8,30.10,SW,228,0.0,0.0,90,0.00,,,0.00,WeatherDisplay:10.37,2013-01-27 06:43:00,
2013-01-26 22:48:00,42.8,40.1,30.10,West,267,1.2,1.2,90,0.00,,,0.00,WeatherDisplay:10.37,2013-01-27 06:48:00,
2013-01-26 22:53:00,43.1,40.7,30.11,WSW,246,0.0,0.0,91,0.00,,,0.00,WeatherDisplay:10.37,2013-01-27 06:53:00,
2013-01-26 22:58:00,43.4,40.9,30.11,WSW,247,0.0,0.0,91,0.00,,,0.00,WeatherDisplay:10.37,2013-01-27 06:58:00,
2013-01-26 23:03:00,43.6,41.1,30.11,WSW,246,0.0,0.0,91,0.00,,,0.00,WeatherDisplay:10.37,2013-01-27 07:03:00,
2013-01-26 23:08:00,43.8,41.1,30.11,WSW,247,0.0,0.0,90,0.00,,,0.00,WeatherDisplay:10.37,2013-01-27 07:08:00,
2013-01-26 23:13:00,44.0,41.3,30.11,WSW,246,0.0,0.0,90,0.00,,,0.00,WeatherDisplay:10.37,2013-01-27 07:13:00,
2013-01-26 23:18:00,44.1,41.4,30.11,WSW,246,0.0,0.0,90,0.00,,,0.00,WeatherDisplay:10.37,2013-01-27 07:18:00,
2013-01-26 23:23:00,44.2,41.2,30.11,WSW,246,0.0,0.0,89,0.00,,,0.00,WeatherDisplay:10.37,2013-01-27 07:23:00,
2013-01-26 23:28:00,44.3,41.3,30.11,WSW,246,0.0,0.0,89,0.00,,,0.00,WeatherDisplay:10.37,2013-01-27 07:28:00,
2013-01-26 23:33:00,44.3,41.3,30.11,WSW,247,0.0,0.0,89,0.00,,,0.00,WeatherDisplay:10.37,2013-01-27 07:33:00,
2013-01-26 23:38:00,44.6,41.6,30.11,SW,224,1.2,1.2,89,0.00,,,0.00,WeatherDisplay:10.37,2013-01-27 07:38:00,
2013-01-26 23:43:00,44.8,41.8,30.11,West,260,0.0,0.0,89,0.00,,,0.00,WeatherDisplay:10.37,2013-01-27 07:43:00,
2013-01-26 23:48:00,44.8,41.5,30.11,WSW,257,0.0,0.0,88,0.00,,,0.00,WeatherDisplay:10.37,2013-01-27 07:48:00,
2013-01-26 23:53:00,44.9,41.6,30.11,WSW,254,0.0,0.0,88,0.00,,,0.00,WeatherDisplay:10.37,2013-01-27 07:53:00,
2013-01-26 23:58:00,45.3,42.0,30.11,WNW,289,1.2,1.2,88,0.00,,,0.00,WeatherDisplay:10.37,2013-01-27 07:58:00,